createdAt,value
2018-03-30T00:01:02.274Z,74.60
2018-03-30T00:06:05.574Z,74.80
2018-03-30T00:11:08.126Z,74.80
2018-03-30T00:16:10.666Z,75.00
2018-03-30T00:21:13.255Z,75.10
2018-03-30T00:26:15.785Z,74.90
2018-03-30T00:31:18.301Z,74.70
2018-03-30T00:36:20.843Z,74.60
2018-03-30T00:41:23.371Z,74.90
2018-03-30T00:46:25.914Z,75.60
2018-03-30T00:51:28.442Z,75.60
2018-03-30T00:56:30.998Z,75.60
2018-03-30T01:01:33.530Z,76.00
2018-03-30T01:06:36.062Z,76.30
2018-03-30T01:11:38.602Z,76.50
2018-03-30T01:16:41.137Z,77.10
2018-03-30T01:21:43.662Z,77.10
2018-03-30T01:26:46.190Z,76.60
2018-03-30T01:31:48.727Z,76.80
2018-03-30T01:36:51.258Z,76.80
2018-03-30T01:41:54.557Z,76.90
2018-03-30T01:46:57.074Z,76.70
2018-03-30T01:51:59.599Z,76.70
2018-03-30T01:57:02.147Z,77.20
2018-03-30T02:02:04.678Z,76.90
2018-03-30T02:07:07.226Z,76.90
2018-03-30T02:12:09.746Z,77.60
2018-03-30T02:17:12.274Z,77.80
2018-03-30T02:22:14.810Z,79.40
2018-03-30T02:27:17.351Z,78.20
2018-03-30T02:32:19.878Z,78.10
2018-03-30T02:37:22.418Z,78.40
2018-03-30T02:42:24.954Z,79.10
2018-03-30T02:47:28.254Z,78.40
2018-03-30T02:52:30.794Z,78.40
2018-03-30T02:57:33.328Z,77.90
2018-03-30T03:02:35.870Z,78.10
2018-03-30T03:07:39.178Z,78.50
2018-03-30T03:12:42.487Z,78.30
2018-03-30T03:17:45.022Z,78.30
2018-03-30T03:22:47.570Z,78.60
2018-03-30T03:27:50.093Z,78.30
2018-03-30T03:32:53.410Z,78.30
2018-03-30T03:37:56.711Z,77.80
2018-03-30T03:42:59.258Z,77.80
2018-03-30T03:48:01.805Z,78.20
2018-03-30T03:53:04.350Z,78.50
2018-03-30T03:58:06.877Z,78.10
2018-03-30T04:03:09.423Z,78.30
2018-03-30T04:08:12.729Z,77.80
2018-03-30T04:13:15.250Z,77.80
2018-03-30T04:18:17.790Z,78.80
2018-03-30T04:23:20.339Z,78.90
2018-03-30T04:28:22.904Z,78.50
2018-03-30T04:33:25.441Z,78.30
2018-03-30T04:38:27.982Z,78.90
2018-03-30T04:43:30.525Z,78.60
2018-03-30T04:48:33.047Z,78.40
2018-03-30T04:53:35.583Z,78.80
2018-03-30T04:58:38.117Z,78.30
2018-03-30T05:03:40.660Z,78.60
2018-03-30T05:08:43.189Z,79.00
2018-03-30T05:13:45.735Z,78.90
2018-03-30T05:18:48.269Z,78.90
2018-03-30T05:23:50.806Z,78.90
2018-03-30T05:28:53.375Z,78.80
2018-03-30T05:33:55.881Z,78.60
2018-03-30T05:38:58.421Z,78.60
2018-03-30T05:44:00.938Z,78.90
2018-03-30T05:49:03.449Z,79.20
2018-03-30T05:54:05.992Z,78.90
2018-03-30T05:59:08.534Z,79.60
2018-03-30T06:04:11.067Z,80.00
2018-03-30T06:09:13.586Z,80.00
2018-03-30T06:14:16.122Z,79.50
2018-03-30T06:19:18.664Z,80.40
2018-03-30T06:24:21.205Z,80.90
2018-03-30T06:29:23.762Z,81.00
2018-03-30T06:34:26.304Z,81.10
2018-03-30T06:39:28.847Z,81.70
2018-03-30T06:44:31.382Z,81.70
2018-03-30T06:49:33.913Z,81.80
2018-03-30T06:54:36.429Z,82.00
2018-03-30T06:59:38.975Z,82.30
2018-03-30T07:04:42.287Z,82.60
2018-03-30T07:09:45.626Z,82.50
2018-03-30T07:14:48.166Z,82.50
2018-03-30T07:19:50.702Z,82.80
2018-03-30T07:24:54.008Z,82.40
2018-03-30T07:29:56.550Z,82.40
2018-03-30T07:34:59.115Z,82.70
2018-03-30T07:40:02.403Z,82.50
2018-03-30T07:45:04.941Z,82.50
2018-03-30T07:50:07.462Z,82.30
2018-03-30T07:55:09.998Z,83.10
2018-03-30T08:00:12.533Z,82.10
2018-03-30T08:05:15.069Z,81.80
2018-03-30T08:10:17.619Z,80.80
2018-03-30T08:15:21.007Z,78.90
2018-03-30T08:20:23.540Z,78.80
2018-03-30T08:25:26.848Z,76.90
2018-03-30T08:30:29.385Z,77.00
2018-03-30T08:35:31.917Z,77.40
2018-03-30T08:40:34.475Z,76.00
2018-03-30T08:45:37.001Z,75.40
2018-03-30T08:50:39.518Z,75.00
2018-03-30T08:55:42.061Z,74.60
2018-03-30T09:00:44.584Z,74.50
2018-03-30T09:05:47.113Z,74.60
2018-03-30T09:10:49.632Z,74.30
2018-03-30T09:15:52.172Z,73.00
2018-03-30T09:20:54.709Z,72.50
2018-03-30T09:25:57.243Z,72.50
2018-03-30T09:30:59.787Z,71.40
2018-03-30T09:36:02.338Z,71.70
2018-03-30T09:41:04.873Z,71.60
2018-03-30T09:46:07.420Z,71.60
2018-03-30T09:51:09.954Z,71.50
2018-03-30T09:56:12.488Z,71.40
2018-03-30T10:01:15.821Z,72.10
2018-03-30T10:06:18.363Z,71.70
2018-03-30T10:11:20.886Z,71.60
2018-03-30T10:16:23.423Z,68.00
2018-03-30T10:21:25.968Z,65.20
2018-03-30T10:26:28.498Z,65.90
2018-03-30T10:31:31.034Z,65.00
2018-03-30T10:36:34.347Z,66.30
2018-03-30T10:41:36.875Z,66.30
2018-03-30T10:46:39.413Z,67.40
2018-03-30T10:51:41.942Z,65.90
2018-03-30T10:56:44.478Z,65.00
2018-03-30T11:01:47.009Z,64.80
2018-03-30T11:06:49.550Z,66.30
2018-03-30T11:11:52.074Z,63.90
2018-03-30T11:16:54.615Z,65.00
2018-03-30T11:21:57.145Z,65.00
2018-03-30T11:26:59.688Z,65.20
2018-03-30T11:32:02.242Z,64.90
2018-03-30T11:37:05.550Z,64.70
2018-03-30T11:42:08.090Z,64.70
2018-03-30T11:47:10.629Z,66.00
2018-03-30T11:52:13.164Z,65.20
2018-03-30T11:57:15.702Z,65.40
2018-03-30T12:02:18.232Z,65.50
2018-03-30T12:07:20.767Z,66.00
2018-03-30T12:17:34.022Z,64.10
2018-03-30T12:22:36.562Z,63.90
2018-03-30T12:27:39.102Z,65.10
2018-03-30T12:32:42.442Z,63.50
2018-03-30T12:37:44.982Z,63.30
2018-03-30T12:42:47.523Z,62.90
2018-03-30T12:47:50.830Z,64.50
2018-03-30T12:52:54.130Z,62.50
2018-03-30T12:57:56.674Z,62.40
2018-03-30T13:02:59.216Z,62.50
2018-03-30T13:08:01.745Z,63.20
2018-03-30T13:13:04.290Z,61.10
2018-03-30T13:18:06.832Z,60.00
2018-03-30T13:23:09.374Z,59.30
2018-03-30T13:28:11.897Z,58.40
2018-03-30T13:33:14.434Z,58.70
2018-03-30T13:38:17.744Z,58.50
2018-03-30T13:43:20.261Z,58.50
2018-03-30T13:48:22.802Z,58.30
2018-03-30T13:53:33.907Z,57.40
2018-03-30T13:58:50.889Z,59.60
2018-03-30T14:03:56.169Z,58.40
2018-03-30T14:09:05.125Z,57.00
2018-03-30T14:14:07.715Z,57.60
2018-03-30T14:19:11.002Z,57.80
2018-03-30T14:24:14.251Z,57.70
2018-03-30T14:29:19.626Z,57.10
2018-03-30T14:34:22.167Z,58.40
2018-03-30T14:45:17.438Z,55.40
2018-03-30T14:50:32.383Z,54.20
2018-03-30T14:55:56.297Z,56.30
2018-03-30T15:01:14.331Z,55.70
2018-03-30T15:06:41.940Z,53.00
2018-03-30T15:12:10.089Z,53.00
2018-03-30T15:17:31.063Z,53.70
2018-03-30T15:22:39.135Z,52.50
2018-03-30T15:27:42.451Z,53.70
2018-03-30T15:33:06.707Z,53.70
2018-03-30T15:38:09.250Z,54.10
2018-03-30T15:43:16.662Z,54.90
2018-03-30T15:48:19.185Z,52.80
2018-03-30T15:53:21.238Z,53.30
2018-03-30T15:58:23.770Z,52.10
2018-03-30T16:03:26.415Z,52.50
2018-03-30T16:08:28.961Z,54.50
2018-03-30T16:13:31.478Z,51.90
2018-03-30T16:18:45.833Z,52.10
2018-03-30T16:23:47.908Z,51.90
2018-03-30T16:28:49.939Z,51.30
2018-03-30T16:33:51.990Z,51.60
2018-03-30T16:38:54.032Z,52.40
2018-03-30T16:43:56.854Z,53.30
2018-03-30T16:48:59.662Z,54.00
2018-03-30T16:54:01.705Z,54.00
2018-03-30T16:59:03.755Z,53.70
2018-03-30T17:04:05.806Z,54.50
2018-03-30T17:09:07.887Z,55.10
2018-03-30T17:14:09.925Z,54.80
2018-03-30T17:19:11.990Z,55.60
2018-03-30T17:24:14.051Z,56.40
2018-03-30T17:29:16.109Z,57.40
2018-03-30T17:34:18.224Z,57.70
2018-03-30T17:39:21.030Z,59.00
2018-03-30T17:44:23.867Z,59.30
2018-03-30T17:49:25.912Z,59.20
2018-03-30T17:54:29.471Z,59.70
2018-03-30T17:59:31.528Z,59.70
2018-03-30T18:04:33.570Z,59.80
2018-03-30T18:09:35.641Z,60.10
2018-03-30T18:14:37.698Z,60.10
2018-03-30T18:19:40.591Z,60.50
2018-03-30T18:24:42.594Z,60.50
2018-03-30T18:29:45.414Z,61.10
2018-03-30T18:34:47.461Z,61.10
2018-03-30T18:39:49.521Z,61.40
2018-03-30T18:44:51.616Z,61.60
2018-03-30T18:49:53.618Z,61.70
2018-03-30T18:54:55.673Z,62.00
2018-03-30T18:59:57.717Z,62.30
2018-03-30T19:05:00.552Z,62.90
2018-03-30T19:10:02.610Z,62.80
2018-03-30T19:15:04.686Z,63.10
2018-03-30T19:20:06.759Z,63.40
2018-03-30T19:25:08.802Z,63.60
2018-03-30T19:30:10.838Z,63.90
2018-03-30T19:35:12.872Z,64.10
2018-03-30T19:40:14.917Z,64.60
2018-03-30T19:45:16.966Z,64.80
2018-03-30T19:50:19.014Z,65.00
2018-03-30T19:55:21.057Z,65.10
2018-03-30T20:00:23.110Z,65.20
2018-03-30T20:05:25.178Z,65.40
2018-03-30T20:10:27.994Z,65.80
2018-03-30T20:15:30.077Z,65.80
2018-03-30T20:20:32.090Z,67.00
2018-03-30T20:25:34.134Z,67.20
2018-03-30T20:30:36.174Z,67.20
2018-03-30T20:35:38.214Z,67.50
2018-03-30T20:40:40.260Z,67.70
2018-03-30T20:45:42.302Z,67.60
2018-03-30T20:50:44.343Z,67.90
2018-03-30T20:55:46.394Z,68.00
2018-03-30T21:00:48.432Z,68.30
2018-03-30T21:05:50.512Z,68.50
2018-03-30T21:10:52.547Z,68.60
2018-03-30T21:15:54.600Z,68.80
2018-03-30T21:20:56.642Z,69.00
2018-03-30T21:25:58.681Z,69.30
2018-03-30T21:31:00.716Z,69.40
2018-03-30T21:36:02.790Z,69.60
2018-03-30T21:41:04.828Z,69.90
2018-03-30T21:46:06.870Z,69.90
2018-03-30T21:51:08.907Z,70.20
2018-03-30T21:56:10.950Z,70.20
2018-03-30T22:01:12.994Z,70.60
2018-03-30T22:06:15.817Z,70.70
2018-03-30T22:11:17.854Z,70.70
2018-03-30T22:16:19.903Z,70.70
2018-03-30T22:21:21.946Z,70.70
2018-03-30T22:26:23.987Z,70.40
2018-03-30T22:31:26.026Z,70.20
2018-03-30T22:36:28.059Z,70.50
2018-03-30T22:41:30.097Z,70.80
2018-03-30T22:46:32.156Z,70.90
2018-03-30T22:51:34.169Z,71.00
2018-03-30T22:56:36.217Z,71.50
2018-03-30T23:01:38.266Z,71.40
2018-03-30T23:06:40.322Z,71.40
2018-03-30T23:11:42.370Z,71.90
2018-03-30T23:16:44.420Z,71.50
2018-03-30T23:21:46.466Z,71.70
2018-03-30T23:26:48.493Z,71.90
2018-03-30T23:31:50.530Z,72.50
2018-03-30T23:36:52.573Z,72.70
2018-03-30T23:41:54.618Z,73.10
2018-03-30T23:46:56.653Z,73.40
2018-03-30T23:51:58.714Z,73.40
2018-03-30T23:57:00.750Z,73.50
